sensor_id;sensor_type;location;lat;lon;timestamp;P1;durP1;ratioP1;P2;durP2;ratioP2
9392;SDS011;4736;52.508;13.422;2023-03-05T00:01:37;18.17;;;6.53;;
9392;SDS011;4736;52.508;13.422;2023-03-05T00:04:40;16.83;;;7.77;;
9392;SDS011;4736;52.508;13.422;2023-03-05T00:07:43;11.23;;;6.23;;
9392;SDS011;4736;52.508;13.422;2023-03-05T00:10:55;13.27;;;7.00;;
9392;SDS011;4736;52.508;13.422;2023-03-05T00:13:59;19.00;;;7.07;;
9392;SDS011;4736;52.508;13.422;2023-03-05T00:17:03;12.30;;;6.90;;
9392;SDS011;4736;52.508;13.422;2023-03-05T00:20:07;14.27;;;7.00;;
9392;SDS011;4736;52.508;13.422;2023-03-05T00:23:11;11.60;;;7.13;;
9392;SDS011;4736;52.508;13.422;2023-03-05T00:26:15;6.80;;;6.03;;
9392;SDS011;4736;52.508;13.422;2023-03-05T00:29:19;18.37;;;6.43;;
9392;SDS011;4736;52.508;13.422;2023-03-05T00:32:22;11.90;;;5.77;;
9392;SDS011;4736;52.508;13.422;2023-03-05T00:35:28;14.27;;;5.70;;
9392;SDS011;4736;52.508;13.422;2023-03-05T00:38:31;12.73;;;6.00;;
9392;SDS011;4736;52.508;13.422;2023-03-05T00:41:36;11.70;;;5.90;;
9392;SDS011;4736;52.508;13.422;2023-03-05T00:44:40;11.40;;;5.67;;
9392;SDS011;4736;52.508;13.422;2023-03-05T00:47:43;9.87;;;5.80;;
9392;SDS011;4736;52.508;13.422;2023-03-05T00:50:46;15.67;;;5.80;;
9392;SDS011;4736;52.508;13.422;2023-03-05T00:53:49;16.40;;;5.70;;
9392;SDS011;4736;52.508;13.422;2023-03-05T00:56:54;10.20;;;5.40;;
9392;SDS011;4736;52.508;13.422;2023-03-05T00:59:58;11.07;;;5.20;;
9392;SDS011;4736;52.508;13.422;2023-03-05T01:03:01;17.77;;;5.70;;
9392;SDS011;4736;52.508;13.422;2023-03-05T01:06:05;11.70;;;5.00;;
9392;SDS011;4736;52.508;13.422;2023-03-05T01:09:09;13.93;;;5.80;;
9392;SDS011;4736;52.508;13.422;2023-03-05T01:12:14;12.97;;;5.30;;
9392;SDS011;4736;52.508;13.422;2023-03-05T01:15:17;13.93;;;5.90;;
9392;SDS011;4736;52.508;13.422;2023-03-05T01:18:20;9.07;;;5.23;;
9392;SDS011;4736;52.508;13.422;2023-03-05T01:21:23;9.13;;;4.80;;
9392;SDS011;4736;52.508;13.422;2023-03-05T01:24:26;10.10;;;5.37;;
9392;SDS011;4736;52.508;13.422;2023-03-05T01:27:32;14.03;;;5.63;;
9392;SDS011;4736;52.508;13.422;2023-03-05T01:30:37;10.00;;;5.10;;
9392;SDS011;4736;52.508;13.422;2023-03-05T01:33:41;12.43;;;5.87;;
9392;SDS011;4736;52.508;13.422;2023-03-05T01:36:44;11.07;;;4.83;;
9392;SDS011;4736;52.508;13.422;2023-03-05T01:39:47;11.87;;;4.60;;
9392;SDS011;4736;52.508;13.422;2023-03-05T01:42:55;10.77;;;4.73;;
9392;SDS011;4736;52.508;13.422;2023-03-05T01:46:21;10.27;;;4.90;;
9392;SDS011;4736;52.508;13.422;2023-03-05T01:49:26;9.23;;;5.33;;
9392;SDS011;4736;52.508;13.422;2023-03-05T01:52:32;8.47;;;4.40;;
9392;SDS011;4736;52.508;13.422;2023-03-05T01:55:38;7.27;;;4.50;;
9392;SDS011;4736;52.508;13.422;2023-03-05T01:58:42;5.83;;;4.07;;
9392;SDS011;4736;52.508;13.422;2023-03-05T02:01:47;4.63;;;4.00;;
9392;SDS011;4736;52.508;13.422;2023-03-05T02:04:54;5.57;;;4.67;;
9392;SDS011;4736;52.508;13.422;2023-03-05T02:08:03;7.23;;;4.50;;
9392;SDS011;4736;52.508;13.422;2023-03-05T02:11:08;6.17;;;4.77;;
9392;SDS011;4736;52.508;13.422;2023-03-05T02:14:13;6.17;;;4.67;;
9392;SDS011;4736;52.508;13.422;2023-03-05T02:17:16;10.07;;;4.40;;
9392;SDS011;4736;52.508;13.422;2023-03-05T02:20:21;10.50;;;4.17;;
9392;SDS011;4736;52.508;13.422;2023-03-05T02:23:27;8.73;;;4.43;;
9392;SDS011;4736;52.508;13.422;2023-03-05T02:26:33;6.93;;;3.90;;
9392;SDS011;4736;52.508;13.422;2023-03-05T02:29:36;9.67;;;3.90;;
9392;SDS011;4736;52.508;13.422;2023-03-05T02:32:42;4.43;;;3.97;;
9392;SDS011;4736;52.508;13.422;2023-03-05T02:35:47;10.00;;;4.10;;
9392;SDS011;4736;52.508;13.422;2023-03-05T02:38:51;7.07;;;3.90;;
9392;SDS011;4736;52.508;13.422;2023-03-05T02:41:57;5.77;;;3.90;;
9392;SDS011;4736;52.508;13.422;2023-03-05T02:45:00;5.27;;;4.00;;
9392;SDS011;4736;52.508;13.422;2023-03-05T02:48:03;4.77;;;4.17;;
9392;SDS011;4736;52.508;13.422;2023-03-05T02:51:06;4.00;;;3.70;;
9392;SDS011;4736;52.508;13.422;2023-03-05T02:54:12;5.27;;;4.23;;
9392;SDS011;4736;52.508;13.422;2023-03-05T02:57:15;5.50;;;3.90;;
9392;SDS011;4736;52.508;13.422;2023-03-05T03:00:19;7.27;;;4.93;;
9392;SDS011;4736;52.508;13.422;2023-03-05T03:03:25;5.73;;;3.90;;
9392;SDS011;4736;52.508;13.422;2023-03-05T03:06:29;5.03;;;4.50;;
9392;SDS011;4736;52.508;13.422;2023-03-05T03:09:34;10.37;;;4.20;;
9392;SDS011;4736;52.508;13.422;2023-03-05T03:12:37;4.43;;;4.13;;
9392;SDS011;4736;52.508;13.422;2023-03-05T03:15:40;7.63;;;4.50;;
9392;SDS011;4736;52.508;13.422;2023-03-05T03:18:43;5.73;;;3.83;;
9392;SDS011;4736;52.508;13.422;2023-03-05T03:21:49;6.63;;;4.33;;
9392;SDS011;4736;52.508;13.422;2023-03-05T03:24:53;6.23;;;4.40;;
9392;SDS011;4736;52.508;13.422;2023-03-05T03:27:56;8.83;;;4.40;;
9392;SDS011;4736;52.508;13.422;2023-03-05T03:30:59;4.90;;;3.70;;
9392;SDS011;4736;52.508;13.422;2023-03-05T03:34:03;8.60;;;4.57;;
9392;SDS011;4736;52.508;13.422;2023-03-05T03:37:05;6.03;;;4.00;;
9392;SDS011;4736;52.508;13.422;2023-03-05T03:40:11;4.53;;;4.03;;
9392;SDS011;4736;52.508;13.422;2023-03-05T03:43:15;4.20;;;3.90;;
9392;SDS011;4736;52.508;13.422;2023-03-05T03:46:18;8.13;;;4.23;;
9392;SDS011;4736;52.508;13.422;2023-03-05T03:49:22;5.10;;;4.10;;
9392;SDS011;4736;52.508;13.422;2023-03-05T03:52:26;5.73;;;4.00;;
9392;SDS011;4736;52.508;13.422;2023-03-05T03:55:31;6.40;;;4.43;;
9392;SDS011;4736;52.508;13.422;2023-03-05T03:58:34;5.07;;;3.90;;
9392;SDS011;4736;52.508;13.422;2023-03-05T04:01:40;4.27;;;3.93;;
9392;SDS011;4736;52.508;13.422;2023-03-05T04:04:46;4.63;;;4.23;;
9392;SDS011;4736;52.508;13.422;2023-03-05T04:07:49;4.97;;;4.30;;
9392;SDS011;4736;52.508;13.422;2023-03-05T04:10:54;7.20;;;4.53;;
9392;SDS011;4736;52.508;13.422;2023-03-05T04:13:57;5.73;;;4.03;;
9392;SDS011;4736;52.508;13.422;2023-03-05T04:17:00;6.40;;;4.27;;
9392;SDS011;4736;52.508;13.422;2023-03-05T04:20:04;3.83;;;3.50;;
9392;SDS011;4736;52.508;13.422;2023-03-05T04:23:09;6.20;;;4.33;;
9392;SDS011;4736;52.508;13.422;2023-03-05T04:26:13;5.33;;;3.87;;
9392;SDS011;4736;52.508;13.422;2023-03-05T04:29:16;3.83;;;3.63;;
9392;SDS011;4736;52.508;13.422;2023-03-05T04:32:19;5.23;;;3.60;;
9392;SDS011;4736;52.508;13.422;2023-03-05T04:35:26;5.83;;;3.93;;
9392;SDS011;4736;52.508;13.422;2023-03-05T04:38:29;4.30;;;3.90;;
9392;SDS011;4736;52.508;13.422;2023-03-05T04:41:34;6.77;;;4.10;;
9392;SDS011;4736;52.508;13.422;2023-03-05T04:44:37;4.93;;;3.97;;
9392;SDS011;4736;52.508;13.422;2023-03-05T04:47:40;5.20;;;4.77;;
9392;SDS011;4736;52.508;13.422;2023-03-05T04:50:43;7.00;;;4.20;;
9392;SDS011;4736;52.508;13.422;2023-03-05T04:53:46;5.37;;;4.30;;
9392;SDS011;4736;52.508;13.422;2023-03-05T04:56:51;5.27;;;4.07;;
9392;SDS011;4736;52.508;13.422;2023-03-05T04:59:54;6.97;;;4.00;;
9392;SDS011;4736;52.508;13.422;2023-03-05T05:02:57;7.00;;;4.90;;
9392;SDS011;4736;52.508;13.422;2023-03-05T05:06:00;4.97;;;4.10;;
9392;SDS011;4736;52.508;13.422;2023-03-05T05:09:04;5.37;;;4.00;;
9392;SDS011;4736;52.508;13.422;2023-03-05T05:12:09;4.13;;;3.70;;
9392;SDS011;4736;52.508;13.422;2023-03-05T05:15:12;4.63;;;4.13;;
9392;SDS011;4736;52.508;13.422;2023-03-05T05:18:15;6.90;;;3.93;;
9392;SDS011;4736;52.508;13.422;2023-03-05T05:21:18;5.67;;;3.93;;
9392;SDS011;4736;52.508;13.422;2023-03-05T05:24:23;6.77;;;4.40;;
9392;SDS011;4736;52.508;13.422;2023-03-05T05:27:27;8.20;;;4.53;;
9392;SDS011;4736;52.508;13.422;2023-03-05T05:30:30;6.27;;;4.37;;
9392;SDS011;4736;52.508;13.422;2023-03-05T05:33:33;6.43;;;4.43;;
9392;SDS011;4736;52.508;13.422;2023-03-05T05:36:37;4.63;;;4.10;;
9392;SDS011;4736;52.508;13.422;2023-03-05T05:39:40;6.00;;;4.13;;
9392;SDS011;4736;52.508;13.422;2023-03-05T05:42:45;7.33;;;4.57;;
9392;SDS011;4736;52.508;13.422;2023-03-05T05:45:48;6.63;;;3.87;;
9392;SDS011;4736;52.508;13.422;2023-03-05T05:48:51;5.10;;;4.10;;
9392;SDS011;4736;52.508;13.422;2023-03-05T05:51:54;4.40;;;4.00;;
9392;SDS011;4736;52.508;13.422;2023-03-05T05:54:58;4.07;;;3.70;;
9392;SDS011;4736;52.508;13.422;2023-03-05T05:58:02;6.20;;;4.10;;
9392;SDS011;4736;52.508;13.422;2023-03-05T06:01:10;5.60;;;3.93;;
9392;SDS011;4736;52.508;13.422;2023-03-05T06:04:15;8.57;;;3.80;;
9392;SDS011;4736;52.508;13.422;2023-03-05T06:07:18;6.30;;;3.83;;
9392;SDS011;4736;52.508;13.422;2023-03-05T06:10:21;7.07;;;4.00;;
9392;SDS011;4736;52.508;13.422;2023-03-05T06:13:25;4.27;;;3.97;;
9392;SDS011;4736;52.508;13.422;2023-03-05T06:16:29;8.67;;;3.90;;
9392;SDS011;4736;52.508;13.422;2023-03-05T06:19:32;9.63;;;4.53;;
9392;SDS011;4736;52.508;13.422;2023-03-05T06:22:35;4.27;;;3.77;;
9392;SDS011;4736;52.508;13.422;2023-03-05T06:25:38;4.90;;;4.50;;
9392;SDS011;4736;52.508;13.422;2023-03-05T06:28:43;4.07;;;3.73;;
9392;SDS011;4736;52.508;13.422;2023-03-05T06:31:47;4.00;;;3.63;;
9392;SDS011;4736;52.508;13.422;2023-03-05T06:34:50;3.83;;;3.60;;
9392;SDS011;4736;52.508;13.422;2023-03-05T06:37:53;4.37;;;3.83;;
9392;SDS011;4736;52.508;13.422;2023-03-05T06:40:59;7.40;;;4.20;;
9392;SDS011;4736;52.508;13.422;2023-03-05T06:44:03;6.00;;;3.63;;
9392;SDS011;4736;52.508;13.422;2023-03-05T06:47:07;6.60;;;4.17;;
9392;SDS011;4736;52.508;13.422;2023-03-05T06:50:10;6.63;;;4.40;;
9392;SDS011;4736;52.508;13.422;2023-03-05T06:53:14;4.57;;;4.00;;
9392;SDS011;4736;52.508;13.422;2023-03-05T06:56:17;4.87;;;4.07;;
9392;SDS011;4736;52.508;13.422;2023-03-05T06:59:22;4.80;;;4.07;;
9392;SDS011;4736;52.508;13.422;2023-03-05T07:02:25;4.50;;;4.10;;
9392;SDS011;4736;52.508;13.422;2023-03-05T07:05:28;4.77;;;3.73;;
9392;SDS011;4736;52.508;13.422;2023-03-05T07:08:34;4.30;;;4.00;;
9392;SDS011;4736;52.508;13.422;2023-03-05T07:11:38;4.80;;;4.00;;
9392;SDS011;4736;52.508;13.422;2023-03-05T07:14:42;4.53;;;4.10;;
9392;SDS011;4736;52.508;13.422;2023-03-05T07:17:45;5.33;;;3.80;;
9392;SDS011;4736;52.508;13.422;2023-03-05T07:20:48;4.33;;;3.93;;
9392;SDS011;4736;52.508;13.422;2023-03-05T07:23:51;9.30;;;4.20;;
9392;SDS011;4736;52.508;13.422;2023-03-05T07:26:55;4.60;;;4.30;;
9392;SDS011;4736;52.508;13.422;2023-03-05T07:30:00;5.23;;;4.20;;
9392;SDS011;4736;52.508;13.422;2023-03-05T07:33:03;3.50;;;3.30;;
9392;SDS011;4736;52.508;13.422;2023-03-05T07:36:06;3.33;;;3.23;;
9392;SDS011;4736;52.508;13.422;2023-03-05T07:39:10;9.37;;;4.07;;
9392;SDS011;4736;52.508;13.422;2023-03-05T07:42:13;8.03;;;4.43;;
9392;SDS011;4736;52.508;13.422;2023-03-05T07:45:17;4.60;;;4.20;;
9392;SDS011;4736;52.508;13.422;2023-03-05T07:48:20;4.23;;;3.63;;
9392;SDS011;4736;52.508;13.422;2023-03-05T07:51:24;4.23;;;3.90;;
9392;SDS011;4736;52.508;13.422;2023-03-05T07:54:28;5.10;;;4.63;;
9392;SDS011;4736;52.508;13.422;2023-03-05T07:57:31;3.90;;;3.60;;
9392;SDS011;4736;52.508;13.422;2023-03-05T08:00:37;4.80;;;4.17;;
9392;SDS011;4736;52.508;13.422;2023-03-05T08:03:41;3.87;;;3.67;;
9392;SDS011;4736;52.508;13.422;2023-03-05T08:06:44;4.50;;;4.10;;
9392;SDS011;4736;52.508;13.422;2023-03-05T08:09:48;7.47;;;3.80;;
9392;SDS011;4736;52.508;13.422;2023-03-05T08:12:51;4.67;;;4.10;;
9392;SDS011;4736;52.508;13.422;2023-03-05T08:15:55;4.43;;;4.10;;
9392;SDS011;4736;52.508;13.422;2023-03-05T08:18:58;3.80;;;3.53;;
9392;SDS011;4736;52.508;13.422;2023-03-05T08:22:01;6.43;;;4.40;;
9392;SDS011;4736;52.508;13.422;2023-03-05T08:25:05;4.50;;;4.20;;
9392;SDS011;4736;52.508;13.422;2023-03-05T08:28:09;4.13;;;3.93;;
9392;SDS011;4736;52.508;13.422;2023-03-05T08:31:14;5.47;;;3.50;;
9392;SDS011;4736;52.508;13.422;2023-03-05T08:34:19;4.80;;;3.80;;
9392;SDS011;4736;52.508;13.422;2023-03-05T08:37:22;3.60;;;3.40;;
9392;SDS011;4736;52.508;13.422;2023-03-05T08:40:25;4.53;;;4.13;;
9392;SDS011;4736;52.508;13.422;2023-03-05T08:43:28;5.03;;;4.43;;
9392;SDS011;4736;52.508;13.422;2023-03-05T08:46:34;4.40;;;4.00;;
9392;SDS011;4736;52.508;13.422;2023-03-05T08:49:39;4.03;;;3.83;;
9392;SDS011;4736;52.508;13.422;2023-03-05T08:52:44;4.17;;;3.73;;
9392;SDS011;4736;52.508;13.422;2023-03-05T08:55:52;6.43;;;3.50;;
9392;SDS011;4736;52.508;13.422;2023-03-05T08:58:56;4.07;;;3.70;;
9392;SDS011;4736;52.508;13.422;2023-03-05T09:02:01;6.97;;;3.97;;
9392;SDS011;4736;52.508;13.422;2023-03-05T09:05:04;4.93;;;4.20;;
9392;SDS011;4736;52.508;13.422;2023-03-05T09:08:08;5.87;;;3.90;;
9392;SDS011;4736;52.508;13.422;2023-03-05T09:11:12;4.70;;;3.50;;
9392;SDS011;4736;52.508;13.422;2023-03-05T09:14:15;4.73;;;3.83;;
9392;SDS011;4736;52.508;13.422;2023-03-05T09:17:19;4.20;;;3.53;;
9392;SDS011;4736;52.508;13.422;2023-03-05T09:20:22;7.60;;;3.93;;
9392;SDS011;4736;52.508;13.422;2023-03-05T09:23:25;4.50;;;3.50;;
9392;SDS011;4736;52.508;13.422;2023-03-05T09:26:30;4.10;;;3.53;;
9392;SDS011;4736;52.508;13.422;2023-03-05T09:29:33;4.23;;;3.90;;
9392;SDS011;4736;52.508;13.422;2023-03-05T09:32:37;3.57;;;3.47;;
9392;SDS011;4736;52.508;13.422;2023-03-05T09:35:40;4.67;;;3.00;;
9392;SDS011;4736;52.508;13.422;2023-03-05T09:38:43;4.27;;;3.73;;
9392;SDS011;4736;52.508;13.422;2023-03-05T09:41:51;3.37;;;3.10;;
9392;SDS011;4736;52.508;13.422;2023-03-05T09:45:13;3.67;;;3.43;;
9392;SDS011;4736;52.508;13.422;2023-03-05T09:48:23;4.70;;;3.33;;
9392;SDS011;4736;52.508;13.422;2023-03-05T09:51:37;4.10;;;3.70;;
9392;SDS011;4736;52.508;13.422;2023-03-05T09:54:43;4.60;;;3.40;;
9392;SDS011;4736;52.508;13.422;2023-03-05T09:57:50;3.57;;;3.37;;
9392;SDS011;4736;52.508;13.422;2023-03-05T10:00:57;5.87;;;3.40;;
9392;SDS011;4736;52.508;13.422;2023-03-05T10:04:05;4.20;;;3.87;;
9392;SDS011;4736;52.508;13.422;2023-03-05T10:07:14;5.27;;;3.80;;
9392;SDS011;4736;52.508;13.422;2023-03-05T10:10:22;4.07;;;3.70;;
9392;SDS011;4736;52.508;13.422;2023-03-05T10:13:29;5.83;;;4.13;;
9392;SDS011;4736;52.508;13.422;2023-03-05T10:16:42;4.33;;;3.57;;
9392;SDS011;4736;52.508;13.422;2023-03-05T10:20:02;4.27;;;3.87;;
9392;SDS011;4736;52.508;13.422;2023-03-05T10:23:21;3.60;;;3.50;;
9392;SDS011;4736;52.508;13.422;2023-03-05T10:26:35;4.30;;;4.00;;
9392;SDS011;4736;52.508;13.422;2023-03-05T10:29:54;3.67;;;3.50;;
9392;SDS011;4736;52.508;13.422;2023-03-05T10:33:09;5.77;;;3.87;;
9392;SDS011;4736;52.508;13.422;2023-03-05T10:36:23;3.50;;;3.40;;
9392;SDS011;4736;52.508;13.422;2023-03-05T10:39:39;4.13;;;3.83;;
9392;SDS011;4736;52.508;13.422;2023-03-05T10:42:54;4.43;;;4.10;;
9392;SDS011;4736;52.508;13.422;2023-03-05T10:46:04;4.47;;;3.77;;
9392;SDS011;4736;52.508;13.422;2023-03-05T10:49:14;3.90;;;3.80;;
9392;SDS011;4736;52.508;13.422;2023-03-05T10:52:26;4.20;;;3.77;;
9392;SDS011;4736;52.508;13.422;2023-03-05T10:55:34;5.23;;;4.43;;
9392;SDS011;4736;52.508;13.422;2023-03-05T10:58:37;4.43;;;4.00;;
9392;SDS011;4736;52.508;13.422;2023-03-05T11:01:40;3.43;;;3.33;;
9392;SDS011;4736;52.508;13.422;2023-03-05T11:04:44;4.10;;;3.70;;
9392;SDS011;4736;52.508;13.422;2023-03-05T11:07:49;5.87;;;4.33;;
9392;SDS011;4736;52.508;13.422;2023-03-05T11:11:09;4.83;;;4.43;;
9392;SDS011;4736;52.508;13.422;2023-03-05T11:14:22;4.53;;;4.17;;
9392;SDS011;4736;52.508;13.422;2023-03-05T11:17:31;4.67;;;4.27;;
9392;SDS011;4736;52.508;13.422;2023-03-05T11:20:37;4.23;;;3.93;;
9392;SDS011;4736;52.508;13.422;2023-03-05T11:23:42;4.30;;;3.90;;
9392;SDS011;4736;52.508;13.422;2023-03-05T11:26:45;4.87;;;4.00;;
9392;SDS011;4736;52.508;13.422;2023-03-05T11:29:50;3.97;;;3.83;;
9392;SDS011;4736;52.508;13.422;2023-03-05T11:33:06;5.27;;;4.87;;
9392;SDS011;4736;52.508;13.422;2023-03-05T11:36:21;5.50;;;4.63;;
9392;SDS011;4736;52.508;13.422;2023-03-05T11:39:27;4.83;;;4.17;;
9392;SDS011;4736;52.508;13.422;2023-03-05T11:42:36;4.00;;;3.83;;
9392;SDS011;4736;52.508;13.422;2023-03-05T11:46:20;4.63;;;4.23;;
9392;SDS011;4736;52.508;13.422;2023-03-05T11:49:24;5.83;;;4.20;;
9392;SDS011;4736;52.508;13.422;2023-03-05T11:52:30;4.57;;;4.27;;
9392;SDS011;4736;52.508;13.422;2023-03-05T11:55:44;4.10;;;3.80;;
9392;SDS011;4736;52.508;13.422;2023-03-05T11:58:50;5.50;;;3.70;;
9392;SDS011;4736;52.508;13.422;2023-03-05T12:01:58;4.30;;;4.10;;
9392;SDS011;4736;52.508;13.422;2023-03-05T12:05:02;4.20;;;4.10;;
9392;SDS011;4736;52.508;13.422;2023-03-05T12:08:10;5.10;;;4.30;;
9392;SDS011;4736;52.508;13.422;2023-03-05T12:11:18;5.60;;;3.97;;
9392;SDS011;4736;52.508;13.422;2023-03-05T12:14:27;3.93;;;3.83;;
9392;SDS011;4736;52.508;13.422;2023-03-05T12:17:36;3.90;;;3.63;;
9392;SDS011;4736;52.508;13.422;2023-03-05T12:20:48;4.63;;;4.23;;
9392;SDS011;4736;52.508;13.422;2023-03-05T12:24:01;4.57;;;4.10;;
9392;SDS011;4736;52.508;13.422;2023-03-05T12:27:33;4.30;;;3.90;;
9392;SDS011;4736;52.508;13.422;2023-03-05T12:30:57;4.30;;;4.10;;
9392;SDS011;4736;52.508;13.422;2023-03-05T12:37:57;3.80;;;3.50;;
9392;SDS011;4736;52.508;13.422;2023-03-05T12:41:33;3.80;;;3.67;;
9392;SDS011;4736;52.508;13.422;2023-03-05T12:44:39;4.23;;;3.67;;
9392;SDS011;4736;52.508;13.422;2023-03-05T12:47:42;4.80;;;4.43;;
9392;SDS011;4736;52.508;13.422;2023-03-05T12:50:48;4.50;;;4.10;;
9392;SDS011;4736;52.508;13.422;2023-03-05T12:53:52;3.77;;;3.57;;
9392;SDS011;4736;52.508;13.422;2023-03-05T12:56:56;4.13;;;3.90;;
9392;SDS011;4736;52.508;13.422;2023-03-05T13:00:04;4.13;;;3.73;;
9392;SDS011;4736;52.508;13.422;2023-03-05T13:03:13;5.03;;;3.83;;
9392;SDS011;4736;52.508;13.422;2023-03-05T13:06:22;3.87;;;3.57;;
9392;SDS011;4736;52.508;13.422;2023-03-05T13:09:27;4.03;;;3.87;;
9392;SDS011;4736;52.508;13.422;2023-03-05T13:12:36;4.00;;;3.73;;
9392;SDS011;4736;52.508;13.422;2023-03-05T13:15:43;4.50;;;4.10;;
9392;SDS011;4736;52.508;13.422;2023-03-05T13:18:48;5.57;;;4.83;;
9392;SDS011;4736;52.508;13.422;2023-03-05T13:21:58;4.10;;;3.70;;
9392;SDS011;4736;52.508;13.422;2023-03-05T13:25:04;4.20;;;3.90;;
9392;SDS011;4736;52.508;13.422;2023-03-05T13:28:16;3.90;;;3.70;;
9392;SDS011;4736;52.508;13.422;2023-03-05T13:31:21;4.87;;;4.47;;
9392;SDS011;4736;52.508;13.422;2023-03-05T13:34:25;3.63;;;3.47;;
9392;SDS011;4736;52.508;13.422;2023-03-05T13:37:46;4.03;;;3.70;;
9392;SDS011;4736;52.508;13.422;2023-03-05T13:41:05;4.27;;;3.93;;
9392;SDS011;4736;52.508;13.422;2023-03-05T13:44:16;3.80;;;3.60;;
9392;SDS011;4736;52.508;13.422;2023-03-05T13:47:24;4.40;;;4.20;;
9392;SDS011;4736;52.508;13.422;2023-03-05T13:50:30;4.10;;;4.00;;
9392;SDS011;4736;52.508;13.422;2023-03-05T13:53:34;3.87;;;3.60;;
9392;SDS011;4736;52.508;13.422;2023-03-05T13:56:46;4.20;;;4.00;;
9392;SDS011;4736;52.508;13.422;2023-03-05T13:59:51;3.87;;;3.50;;
9392;SDS011;4736;52.508;13.422;2023-03-05T14:02:56;6.10;;;3.77;;
9392;SDS011;4736;52.508;13.422;2023-03-05T14:06:04;6.30;;;4.80;;
9392;SDS011;4736;52.508;13.422;2023-03-05T14:09:16;4.57;;;4.27;;
9392;SDS011;4736;52.508;13.422;2023-03-05T14:12:23;4.80;;;4.40;;
9392;SDS011;4736;52.508;13.422;2023-03-05T14:15:31;3.83;;;3.53;;
9392;SDS011;4736;52.508;13.422;2023-03-05T14:18:49;4.50;;;4.10;;
9392;SDS011;4736;52.508;13.422;2023-03-05T14:21:54;4.20;;;3.90;;
9392;SDS011;4736;52.508;13.422;2023-03-05T14:24:57;3.97;;;3.77;;
9392;SDS011;4736;52.508;13.422;2023-03-05T14:28:02;4.00;;;3.77;;
9392;SDS011;4736;52.508;13.422;2023-03-05T14:31:09;4.33;;;3.93;;
9392;SDS011;4736;52.508;13.422;2023-03-05T14:34:20;3.80;;;3.50;;
9392;SDS011;4736;52.508;13.422;2023-03-05T14:37:28;3.27;;;3.17;;
9392;SDS011;4736;52.508;13.422;2023-03-05T14:40:35;3.40;;;3.20;;
9392;SDS011;4736;52.508;13.422;2023-03-05T14:43:38;3.43;;;3.23;;
9392;SDS011;4736;52.508;13.422;2023-03-05T14:46:41;3.37;;;3.27;;
9392;SDS011;4736;52.508;13.422;2023-03-05T14:49:46;3.63;;;3.40;;
9392;SDS011;4736;52.508;13.422;2023-03-05T14:52:50;4.07;;;3.80;;
9392;SDS011;4736;52.508;13.422;2023-03-05T14:55:55;3.63;;;3.53;;
9392;SDS011;4736;52.508;13.422;2023-03-05T14:58:58;3.83;;;3.53;;
9392;SDS011;4736;52.508;13.422;2023-03-05T15:02:01;3.70;;;3.50;;
9392;SDS011;4736;52.508;13.422;2023-03-05T15:05:06;3.43;;;3.23;;
9392;SDS011;4736;52.508;13.422;2023-03-05T15:08:12;3.47;;;3.23;;
9392;SDS011;4736;52.508;13.422;2023-03-05T15:11:21;3.50;;;3.30;;
9392;SDS011;4736;52.508;13.422;2023-03-05T15:14:24;3.83;;;3.63;;
9392;SDS011;4736;52.508;13.422;2023-03-05T15:17:30;3.37;;;3.17;;
9392;SDS011;4736;52.508;13.422;2023-03-05T15:20:38;3.87;;;3.10;;
9392;SDS011;4736;52.508;13.422;2023-03-05T15:23:41;4.03;;;3.80;;
9392;SDS011;4736;52.508;13.422;2023-03-05T15:26:45;3.93;;;3.83;;
9392;SDS011;4736;52.508;13.422;2023-03-05T15:29:50;4.30;;;4.00;;
9392;SDS011;4736;52.508;13.422;2023-03-05T15:32:54;8.90;;;3.90;;
9392;SDS011;4736;52.508;13.422;2023-03-05T15:36:02;3.63;;;3.27;;
9392;SDS011;4736;52.508;13.422;2023-03-05T15:39:05;3.87;;;3.40;;
9392;SDS011;4736;52.508;13.422;2023-03-05T15:42:08;3.77;;;3.50;;
9392;SDS011;4736;52.508;13.422;2023-03-05T15:45:11;4.03;;;3.70;;
9392;SDS011;4736;52.508;13.422;2023-03-05T15:48:15;3.50;;;3.30;;
9392;SDS011;4736;52.508;13.422;2023-03-05T15:51:19;3.87;;;3.70;;
9392;SDS011;4736;52.508;13.422;2023-03-05T15:54:22;4.00;;;3.80;;
9392;SDS011;4736;52.508;13.422;2023-03-05T15:57:26;4.43;;;3.50;;
9392;SDS011;4736;52.508;13.422;2023-03-05T16:00:29;3.70;;;3.47;;
9392;SDS011;4736;52.508;13.422;2023-03-05T16:03:32;3.43;;;3.17;;
9392;SDS011;4736;52.508;13.422;2023-03-05T16:06:37;4.10;;;3.80;;
9392;SDS011;4736;52.508;13.422;2023-03-05T16:09:41;3.13;;;3.13;;
9392;SDS011;4736;52.508;13.422;2023-03-05T16:12:49;3.30;;;3.10;;
9392;SDS011;4736;52.508;13.422;2023-03-05T16:15:55;3.57;;;3.37;;
9392;SDS011;4736;52.508;13.422;2023-03-05T16:19:00;5.83;;;3.50;;
9392;SDS011;4736;52.508;13.422;2023-03-05T16:22:05;4.10;;;3.50;;
9392;SDS011;4736;52.508;13.422;2023-03-05T16:25:08;3.70;;;3.40;;
9392;SDS011;4736;52.508;13.422;2023-03-05T16:28:11;4.00;;;3.70;;
9392;SDS011;4736;52.508;13.422;2023-03-05T16:31:14;3.70;;;3.50;;
9392;SDS011;4736;52.508;13.422;2023-03-05T16:34:17;3.43;;;3.23;;
9392;SDS011;4736;52.508;13.422;2023-03-05T16:37:23;4.63;;;4.23;;
9392;SDS011;4736;52.508;13.422;2023-03-05T16:40:26;4.13;;;3.80;;
9392;SDS011;4736;52.508;13.422;2023-03-05T16:43:49;3.90;;;3.57;;
9392;SDS011;4736;52.508;13.422;2023-03-05T16:46:53;3.83;;;3.63;;
9392;SDS011;4736;52.508;13.422;2023-03-05T16:49:56;3.80;;;3.60;;
9392;SDS011;4736;52.508;13.422;2023-03-05T16:53:02;4.03;;;3.77;;
9392;SDS011;4736;52.508;13.422;2023-03-05T16:56:06;5.43;;;4.50;;
9392;SDS011;4736;52.508;13.422;2023-03-05T16:59:10;3.63;;;3.53;;
9392;SDS011;4736;52.508;13.422;2023-03-05T17:02:13;3.87;;;3.77;;
9392;SDS011;4736;52.508;13.422;2023-03-05T17:05:16;3.90;;;3.60;;
9392;SDS011;4736;52.508;13.422;2023-03-05T17:08:25;5.03;;;3.90;;
9392;SDS011;4736;52.508;13.422;2023-03-05T17:11:29;6.40;;;4.80;;
9392;SDS011;4736;52.508;13.422;2023-03-05T17:14:32;5.53;;;4.37;;
9392;SDS011;4736;52.508;13.422;2023-03-05T17:17:35;4.40;;;4.03;;
9392;SDS011;4736;52.508;13.422;2023-03-05T17:20:39;5.83;;;4.93;;
9392;SDS011;4736;52.508;13.422;2023-03-05T17:23:44;4.73;;;4.17;;
9392;SDS011;4736;52.508;13.422;2023-03-05T17:26:47;4.13;;;4.03;;
9392;SDS011;4736;52.508;13.422;2023-03-05T17:29:50;4.90;;;4.50;;
9392;SDS011;4736;52.508;13.422;2023-03-05T17:32:53;4.43;;;4.03;;
9392;SDS011;4736;52.508;13.422;2023-03-05T17:35:56;4.40;;;4.10;;
9392;SDS011;4736;52.508;13.422;2023-03-05T17:39:01;4.03;;;3.73;;
9392;SDS011;4736;52.508;13.422;2023-03-05T17:42:04;7.47;;;4.10;;
9392;SDS011;4736;52.508;13.422;2023-03-05T17:45:07;4.20;;;3.93;;
9392;SDS011;4736;52.508;13.422;2023-03-05T17:48:11;4.73;;;4.47;;
9392;SDS011;4736;52.508;13.422;2023-03-05T17:51:16;4.27;;;4.00;;
9392;SDS011;4736;52.508;13.422;2023-03-05T17:54:43;4.37;;;4.07;;
9392;SDS011;4736;52.508;13.422;2023-03-05T17:57:50;4.30;;;3.87;;
9392;SDS011;4736;52.508;13.422;2023-03-05T18:00:54;3.90;;;3.70;;
9392;SDS011;4736;52.508;13.422;2023-03-05T18:03:57;4.30;;;4.00;;
9392;SDS011;4736;52.508;13.422;2023-03-05T18:07:00;5.30;;;5.00;;
9392;SDS011;4736;52.508;13.422;2023-03-05T18:10:06;4.03;;;3.77;;
9392;SDS011;4736;52.508;13.422;2023-03-05T18:13:10;4.57;;;4.13;;
9392;SDS011;4736;52.508;13.422;2023-03-05T18:16:13;4.60;;;4.20;;
9392;SDS011;4736;52.508;13.422;2023-03-05T18:19:18;4.43;;;4.13;;
9392;SDS011;4736;52.508;13.422;2023-03-05T18:22:21;4.63;;;4.30;;
9392;SDS011;4736;52.508;13.422;2023-03-05T18:25:26;4.60;;;4.30;;
9392;SDS011;4736;52.508;13.422;2023-03-05T18:28:31;4.47;;;4.27;;
9392;SDS011;4736;52.508;13.422;2023-03-05T18:31:34;4.20;;;3.90;;
9392;SDS011;4736;52.508;13.422;2023-03-05T18:34:37;5.40;;;4.50;;
9392;SDS011;4736;52.508;13.422;2023-03-05T18:37:41;5.40;;;4.97;;
9392;SDS011;4736;52.508;13.422;2023-03-05T18:40:45;4.27;;;4.07;;
9392;SDS011;4736;52.508;13.422;2023-03-05T18:43:51;5.30;;;4.00;;
9392;SDS011;4736;52.508;13.422;2023-03-05T18:46:54;5.13;;;4.13;;
9392;SDS011;4736;52.508;13.422;2023-03-05T18:49:58;4.63;;;4.23;;
9392;SDS011;4736;52.508;13.422;2023-03-05T18:53:01;4.37;;;4.00;;
9392;SDS011;4736;52.508;13.422;2023-03-05T18:56:06;3.93;;;3.63;;
9392;SDS011;4736;52.508;13.422;2023-03-05T18:59:09;6.43;;;5.20;;